Time;durP1;ratioP1;P1;durP2;ratioP2;P2;SDS_P1;SDS_P2;PMS_P1;PMS_P2;Temp;Humidity;BMP_temperature;BMP_pressure;BME280_temperature;BME280_humidity;BME280_pressure;Samples;Min_cycle;Max_cycle;Signal;HPM_P1;HPM_P2
2023/02/06 00:01:11;;;;;;;33.05;4.55;;;2.00;99.90;;;;;;5054558;28;20060;-78
2023/02/06 00:03:36;;;;;;;29.42;4.43;;;2.00;99.90;;;;;;5065427;28;20035;-78
2023/02/06 00:06:02;;;;;;;33.20;4.72;;;1.90;99.90;;;;;;5083675;28;20042;-78
2023/02/06 00:08:28;;;;;;;34.95;5.00;;;1.90;99.90;;;;;;5060620;28;20107;-78
2023/02/06 00:10:53;;;;;;;35.10;4.82;;;1.90;99.90;;;;;;5061774;28;20435;-78
2023/02/06 00:13:19;;;;;;;21.58;4.72;;;1.80;99.90;;;;;;5065886;28;20036;-79
2023/02/06 00:15:44;;;;;;;26.63;4.47;;;1.60;99.90;;;;;;5049664;28;20035;-79
2023/02/06 00:18:10;;;;;;;26.05;5.15;;;1.60;99.90;;;;;;5063024;28;20102;-78
2023/02/06 00:20:36;;;;;;;34.08;4.68;;;1.60;99.90;;;;;;5065537;28;20044;-78
2023/02/06 00:23:01;;;;;;;29.60;4.38;;;1.60;99.90;;;;;;5055321;28;20365;-78
2023/02/06 00:25:27;;;;;;;33.35;5.00;;;1.50;99.90;;;;;;5083279;28;20028;-79
2023/02/06 00:27:52;;;;;;;32.03;6.68;;;1.40;99.90;;;;;;5087492;28;20020;-79
2023/02/06 00:30:18;;;;;;;31.92;4.70;;;1.50;99.90;;;;;;5055855;28;20031;-78
2023/02/06 00:32:43;;;;;;;33.00;5.53;;;1.50;99.90;;;;;;5048578;28;20032;-78
2023/02/06 00:35:09;;;;;;;46.28;6.22;;;1.40;99.90;;;;;;5073932;28;20032;-78
2023/02/06 00:37:34;;;;;;;43.42;5.53;;;1.40;99.90;;;;;;5054761;28;20028;-78
2023/02/06 00:40:00;;;;;;;43.20;6.15;;;1.30;99.90;;;;;;5087745;28;20361;-78
2023/02/06 00:42:25;;;;;;;26.88;4.47;;;1.30;99.90;;;;;;5075233;28;20039;-78
2023/02/06 00:44:51;;;;;;;35.83;4.85;;;1.30;99.90;;;;;;5075563;28;20024;-78
2023/02/06 00:47:17;;;;;;;30.17;4.63;;;1.20;99.90;;;;;;5090972;28;20028;-78
2023/02/06 00:49:42;;;;;;;39.80;6.43;;;1.10;99.90;;;;;;5052321;28;20111;-79
2023/02/06 00:52:08;;;;;;;30.13;5.55;;;1.20;99.90;;;;;;5076907;28;20484;-78
2023/02/06 00:54:33;;;;;;;40.92;5.63;;;1.10;99.90;;;;;;5091741;28;20024;-78
2023/02/06 00:56:59;;;;;;;44.50;5.85;;;1.10;99.90;;;;;;5073583;28;20028;-78
2023/02/06 00:59:24;;;;;;;47.83;7.43;;;1.30;99.90;;;;;;5087503;28;20024;-78
2023/02/06 01:01:50;;;;;;;42.97;5.47;;;1.30;99.90;;;;;;5093592;28;20033;-78
2023/02/06 01:04:15;;;;;;;31.50;4.95;;;1.20;99.90;;;;;;5075107;28;20039;-78
2023/02/06 01:06:41;;;;;;;38.55;5.13;;;1.20;99.90;;;;;;5071205;28;20441;-78
2023/02/06 01:09:06;;;;;;;29.02;4.85;;;1.10;99.90;;;;;;5091967;28;20039;-78
2023/02/06 01:11:32;;;;;;;37.28;4.82;;;1.10;99.90;;;;;;5074390;28;20028;-78
2023/02/06 01:13:57;;;;;;;41.17;4.78;;;1.00;99.90;;;;;;5074582;28;20032;-78
2023/02/06 01:16:23;;;;;;;47.90;5.82;;;0.90;99.90;;;;;;5084871;28;20043;-78
2023/02/06 01:18:49;;;;;;;31.92;5.63;;;0.90;99.90;;;;;;5069758;28;20038;-78
2023/02/06 01:21:17;;;;;;;28.63;4.57;;;1.00;99.90;;;;;;5072866;28;20132;-78
2023/02/06 01:23:42;;;;;;;22.23;4.15;;;1.00;99.90;;;;;;5072655;28;20035;-78
2023/02/06 01:26:10;;;;;;;17.27;3.40;;;1.10;99.90;;;;;;5053914;28;20043;-78
2023/02/06 01:28:36;;;;;;;30.65;4.95;;;1.20;99.90;;;;;;5056463;28;20044;-78
2023/02/06 01:31:16;;;;;;;25.73;5.75;;;1.30;99.90;;;;;;5070864;28;21624;-77
2023/02/06 01:33:42;;;;;;;29.25;4.70;;;1.10;99.90;;;;;;5069142;28;20063;-78
2023/02/06 01:36:07;;;;;;;35.28;5.18;;;0.90;99.90;;;;;;5055976;28;20024;-78
2023/02/06 01:38:33;;;;;;;42.15;6.20;;;0.70;99.90;;;;;;5090689;28;20038;-78
2023/02/06 01:40:59;;;;;;;42.53;7.05;;;0.60;99.90;;;;;;5072765;28;20062;-78
2023/02/06 01:43:26;;;;;;;37.30;6.43;;;0.60;99.90;;;;;;5087300;28;20020;-78
2023/02/06 01:45:52;;;;;;;32.50;6.28;;;0.70;99.90;;;;;;5072333;28;20043;-78
2023/02/06 01:48:25;;;;;;;38.25;5.53;;;0.60;99.90;;;;;;5069909;28;20396;-78
2023/02/06 01:50:52;;;;;;;32.72;4.75;;;0.60;99.90;;;;;;5086614;28;20030;-78
2023/02/06 01:53:18;;;;;;;35.08;4.90;;;0.50;99.90;;;;;;5057758;28;20043;-78
2023/02/06 01:55:44;;;;;;;38.03;5.43;;;0.60;99.90;;;;;;5084594;28;20066;-78
2023/02/06 01:58:10;;;;;;;24.65;4.43;;;0.60;99.90;;;;;;5062025;28;20035;-78
2023/02/06 02:00:36;;;;;;;14.70;3.38;;;0.80;99.90;;;;;;5061582;28;20024;-78
2023/02/06 02:03:01;;;;;;;15.57;3.45;;;0.90;99.90;;;;;;5070790;28;20036;-78
2023/02/06 02:05:27;;;;;;;11.27;2.97;;;0.90;99.90;;;;;;5069632;28;20100;-78
2023/02/06 02:08:00;;;;;;;19.08;4.95;;;1.10;99.90;;;;;;5054001;28;20055;-78
2023/02/06 02:10:27;;;;;;;21.60;4.78;;;1.10;99.90;;;;;;5067264;28;20387;-78
2023/02/06 02:12:53;;;;;;;24.95;4.38;;;0.80;99.90;;;;;;5070521;28;20107;-78
2023/02/06 02:15:21;;;;;;;32.65;5.05;;;0.60;99.90;;;;;;5086963;28;20499;-78
2023/02/06 02:18:24;;;;;;;35.60;5.50;;;0.50;99.90;;;;;;5071684;28;20024;-78
2023/02/06 02:20:49;;;;;;;14.88;3.10;;;0.50;99.90;;;;;;5083640;28;20031;-78
2023/02/06 02:23:41;;;;;;;24.13;4.68;;;0.70;99.90;;;;;;5086640;28;20032;-78
2023/02/06 02:26:28;;;;;;;18.10;4.55;;;0.80;99.90;;;;;;5103189;27;20036;-78
2023/02/06 02:29:05;;;;;;;26.38;4.68;;;0.70;99.90;;;;;;5072894;28;20020;-78
2023/02/06 02:31:49;;;;;;;22.50;7.28;;;0.80;99.90;;;;;;5082353;28;20024;-78
2023/02/06 02:34:38;;;;;;;22.88;4.82;;;0.70;99.90;;;;;;5087521;28;20085;-78
2023/02/06 02:37:42;;;;;;;24.55;4.45;;;0.60;99.90;;;;;;5068827;28;20496;-78
2023/02/06 02:40:38;;;;;;;34.40;5.72;;;0.60;99.90;;;;;;5066816;28;20488;-77
2023/02/06 02:43:13;;;;;;;31.73;5.90;;;0.30;99.90;;;;;;5078705;28;20036;-78
2023/02/06 02:46:01;;;;;;;25.30;5.40;;;0.10;99.90;;;;;;5071849;28;20089;-78
2023/02/06 02:48:28;;;;;;;29.83;5.95;;;0.00;99.90;;;;;;5056680;28;20036;-78
2023/02/06 02:50:54;;;;;;;26.35;4.55;;;-0.10;99.90;;;;;;5066928;28;20491;-78
2023/02/06 02:53:20;;;;;;;27.65;5.72;;;-0.10;99.90;;;;;;5054821;28;20028;-78
2023/02/06 02:55:45;;;;;;;24.05;4.53;;;-0.10;99.90;;;;;;5056659;28;20039;-77
2023/02/06 02:58:13;;;;;;;34.35;5.25;;;-0.20;99.90;;;;;;5073587;28;20024;-78
2023/02/06 03:00:44;;;;;;;31.55;6.32;;;-0.30;99.90;;;;;;5052495;28;20507;-78
2023/02/06 03:03:10;;;;;;;27.30;5.60;;;-0.10;99.90;;;;;;5080732;28;20110;-78
2023/02/06 03:05:44;;;;;;;15.60;4.53;;;0.00;99.90;;;;;;5050304;28;20055;-78
2023/02/06 03:08:40;;;;;;;14.70;3.20;;;0.30;99.90;;;;;;5074933;28;20043;-78
2023/02/06 03:11:15;;;;;;;22.77;3.83;;;0.40;99.90;;;;;;5075641;28;20035;-78
2023/02/06 03:13:46;;;;;;;19.75;3.83;;;0.40;99.90;;;;;;5087318;28;20069;-78
2023/02/06 03:16:46;;;;;;;26.50;5.45;;;0.40;99.90;;;;;;5070554;28;20020;-81
2023/02/06 03:19:15;;;;;;;15.95;3.20;;;0.30;99.90;;;;;;5056737;28;20027;-82
2023/02/06 03:21:41;;;;;;;30.20;4.47;;;0.40;99.90;;;;;;5073038;28;20027;-82
2023/02/06 03:24:12;;;;;;;16.25;3.58;;;0.30;99.90;;;;;;5071198;28;20042;-83
2023/02/06 03:26:38;;;;;;;20.88;4.35;;;0.40;99.90;;;;;;5068632;28;20050;-82
2023/02/06 03:29:06;;;;;;;21.40;5.32;;;0.50;99.90;;;;;;5071292;28;20032;-82
2023/02/06 03:31:34;;;;;;;11.70;3.65;;;0.30;99.90;;;;;;5053486;28;20133;-82
2023/02/06 03:34:08;;;;;;;29.13;5.28;;;0.20;99.90;;;;;;5072544;28;20039;-82
2023/02/06 03:36:34;;;;;;;23.27;5.55;;;0.20;99.90;;;;;;5067742;28;20039;-82
2023/02/06 03:38:59;;;;;;;21.10;5.03;;;0.10;99.90;;;;;;5072929;28;20032;-81
2023/02/06 03:41:28;;;;;;;20.48;5.38;;;0.10;99.90;;;;;;5055666;28;20479;-78
2023/02/06 03:43:54;;;;;;;18.23;4.00;;;0.10;99.90;;;;;;5072516;28;20028;-78
2023/02/06 03:46:19;;;;;;;11.30;3.40;;;0.00;99.90;;;;;;5069674;28;20545;-78
2023/02/06 03:48:50;;;;;;;9.98;2.95;;;0.00;99.90;;;;;;5083742;28;20058;-82
2023/02/06 03:51:22;;;;;;;14.43;3.75;;;0.10;99.90;;;;;;5053891;28;20124;-81
2023/02/06 03:53:48;;;;;;;11.60;3.38;;;0.20;99.90;;;;;;5053135;28;20036;-81
2023/02/06 03:56:55;;;;;;;8.43;2.83;;;0.20;99.90;;;;;;5058426;28;20032;-81
2023/02/06 03:59:21;;;;;;;10.05;3.90;;;0.20;99.90;;;;;;5005297;28;20040;-81
2023/02/06 04:01:48;;;;;;;17.70;4.57;;;0.10;99.90;;;;;;5029103;28;20037;-81
2023/02/06 04:04:15;;;;;;;16.95;4.20;;;0.00;99.90;;;;;;5043554;28;20040;-81
2023/02/06 04:06:41;;;;;;;16.70;3.53;;;-0.30;99.90;;;;;;5067443;28;20040;-81
2023/02/06 04:09:06;;;;;;;11.00;3.53;;;-0.50;99.90;;;;;;5066011;28;20493;-81
2023/02/06 04:11:32;;;;;;;13.10;3.88;;;-0.60;99.90;;;;;;5084635;28;20036;-81
2023/02/06 04:13:57;;;;;;;20.83;4.70;;;-0.80;99.90;;;;;;5071519;28;20107;-82
2023/02/06 04:16:23;;;;;;;18.20;4.20;;;-0.90;99.90;;;;;;5086177;28;20063;-81
2023/02/06 04:18:49;;;;;;;16.20;4.95;;;-0.90;99.90;;;;;;5087673;28;20035;-82
2023/02/06 04:21:15;;;;;;;15.32;4.55;;;-0.90;99.90;;;;;;5052372;28;20470;-81
2023/02/06 04:23:41;;;;;;;11.32;4.45;;;-0.80;99.90;;;;;;5067531;28;20032;-81
2023/02/06 04:26:06;;;;;;;13.50;3.47;;;-0.50;99.90;;;;;;5069244;28;20028;-81
2023/02/06 04:28:32;;;;;;;13.38;2.97;;;-0.40;99.90;;;;;;5051114;28;20024;-81
2023/02/06 04:30:58;;;;;;;17.27;4.22;;;-0.50;99.90;;;;;;5094051;28;20074;-78
2023/02/06 04:33:24;;;;;;;39.88;5.07;;;-0.50;99.90;;;;;;5087507;28;20027;-77
2023/02/06 04:35:49;;;;;;;67.70;4.93;;;-0.50;99.90;;;;;;5073284;28;20069;-78
2023/02/06 04:38:15;;;;;;;29.02;4.40;;;-0.60;99.90;;;;;;5084168;28;20122;-78
2023/02/06 04:40:40;;;;;;;9.65;3.80;;;-1.00;99.90;;;;;;5072091;28;20023;-78
2023/02/06 04:43:06;;;;;;;15.15;4.35;;;-1.10;99.90;;;;;;5071969;28;20035;-78
2023/02/06 04:45:31;;;;;;;10.60;4.70;;;-1.20;99.90;;;;;;5089408;28;20073;-77
2023/02/06 04:47:57;;;;;;;9.65;3.78;;;-1.20;99.90;;;;;;5073049;28;20024;-77
2023/02/06 04:50:23;;;;;;;17.23;5.13;;;-1.10;99.90;;;;;;5083857;28;20058;-78
2023/02/06 04:52:49;;;;;;;15.25;4.50;;;-1.00;99.90;;;;;;5066215;28;20051;-78
2023/02/06 04:55:14;;;;;;;12.88;5.38;;;-1.20;99.90;;;;;;5059620;28;20036;-78
2023/02/06 04:57:40;;;;;;;16.13;5.38;;;-1.30;99.90;;;;;;5070705;28;20032;-78
2023/02/06 05:00:07;;;;;;;15.10;4.90;;;-1.20;99.90;;;;;;5062658;28;20020;-78
2023/02/06 05:02:38;;;;;;;13.10;4.38;;;-1.10;99.90;;;;;;5054864;28;20039;-78
2023/02/06 05:05:04;;;;;;;10.23;4.47;;;-0.80;99.90;;;;;;5069865;28;20039;-78
2023/02/06 05:07:29;;;;;;;16.90;4.05;;;-0.80;99.90;;;;;;5071828;28;20063;-77
2023/02/06 05:09:55;;;;;;;9.38;4.25;;;-1.00;99.90;;;;;;5071323;28;20051;-77
2023/02/06 05:12:21;;;;;;;11.52;4.32;;;-0.90;99.90;;;;;;5071849;28;20047;-78
2023/02/06 05:14:46;;;;;;;14.85;5.05;;;-0.90;99.90;;;;;;5071818;27;20032;-78
2023/02/06 05:17:12;;;;;;;13.38;5.97;;;-1.00;99.90;;;;;;5087890;28;20044;-78
2023/02/06 05:19:37;;;;;;;16.00;4.65;;;-1.10;99.90;;;;;;5068808;28;20027;-78
2023/02/06 05:22:03;;;;;;;12.27;4.97;;;-1.00;99.90;;;;;;5091808;28;20036;-78
2023/02/06 05:24:28;;;;;;;11.35;5.13;;;-1.10;99.90;;;;;;5056146;28;20110;-77
2023/02/06 05:26:56;;;;;;;8.02;4.50;;;-1.10;99.90;;;;;;5072101;28;20606;-78
2023/02/06 05:29:22;;;;;;;13.45;4.93;;;-1.20;99.90;;;;;;5084845;28;20395;-78
2023/02/06 05:31:47;;;;;;;8.00;3.65;;;-1.10;99.90;;;;;;5089086;28;20037;-78
2023/02/06 05:34:13;;;;;;;10.10;4.13;;;-0.90;99.90;;;;;;5086567;28;20055;-78
2023/02/06 05:36:39;;;;;;;4.88;3.35;;;-0.80;99.90;;;;;;5084261;28;20032;-78
2023/02/06 05:39:04;;;;;;;8.98;3.60;;;-0.60;99.90;;;;;;5089137;28;20027;-78
2023/02/06 05:41:30;;;;;;;11.52;5.18;;;-0.50;99.90;;;;;;5059001;28;20475;-78
2023/02/06 05:43:55;;;;;;;19.25;6.40;;;-0.60;99.90;;;;;;5064904;28;20042;-79
2023/02/06 05:46:21;;;;;;;16.40;6.93;;;-0.60;99.90;;;;;;5065922;28;20028;-79
2023/02/06 05:48:47;;;;;;;15.43;6.18;;;-0.60;99.90;;;;;;5088787;28;20036;-80
2023/02/06 05:51:12;;;;;;;15.45;5.47;;;-0.80;99.90;;;;;;5093490;28;20050;-78
2023/02/06 05:53:45;;;;;;;16.20;5.95;;;-0.80;99.90;;;;;;5067951;28;20376;-78
2023/02/06 05:56:10;;;;;;;27.55;6.85;;;-0.80;99.90;;;;;;5067699;28;20029;-78
2023/02/06 05:58:36;;;;;;;15.52;5.85;;;-0.80;99.90;;;;;;5072403;28;20157;-78
2023/02/06 06:01:01;;;;;;;15.95;6.57;;;-0.90;99.90;;;;;;5055877;28;20490;-78
2023/02/06 06:03:27;;;;;;;25.15;6.57;;;-1.00;99.90;;;;;;5069628;28;20071;-78
2023/02/06 06:05:52;;;;;;;14.45;5.45;;;-1.10;99.90;;;;;;5072206;28;20434;-78
2023/02/06 06:08:18;;;;;;;14.25;5.32;;;-1.20;99.90;;;;;;5074315;28;20035;-78
2023/02/06 06:10:44;;;;;;;14.13;5.78;;;-1.10;99.90;;;;;;5050108;28;20365;-78
2023/02/06 06:13:10;;;;;;;13.18;4.00;;;-1.10;99.90;;;;;;5067851;28;20095;-78
2023/02/06 06:15:35;;;;;;;21.25;5.80;;;-1.00;99.90;;;;;;5055491;28;20026;-78
2023/02/06 06:18:01;;;;;;;21.65;6.47;;;-0.70;99.90;;;;;;5083870;28;20036;-78
2023/02/06 06:20:26;;;;;;;19.38;7.35;;;-0.60;99.90;;;;;;5047359;28;20034;-78
2023/02/06 06:22:52;;;;;;;28.20;7.00;;;-0.70;99.90;;;;;;5070474;28;20039;-78
2023/02/06 06:25:17;;;;;;;33.05;13.35;;;-0.70;99.90;;;;;;5070696;28;20067;-78
2023/02/06 06:27:43;;;;;;;37.00;14.32;;;-0.60;99.90;;;;;;5069695;28;20036;-78
2023/02/06 06:30:09;;;;;;;26.50;9.85;;;-0.50;99.90;;;;;;5066923;28;20071;-79
2023/02/06 06:32:35;;;;;;;34.58;8.55;;;-0.50;99.90;;;;;;5066965;28;20123;-79
2023/02/06 06:35:01;;;;;;;41.58;6.85;;;-0.50;99.90;;;;;;5089014;28;20143;-79
2023/02/06 06:37:26;;;;;;;60.17;9.88;;;-0.40;99.90;;;;;;5090335;28;20025;-79
2023/02/06 06:39:52;;;;;;;80.30;10.43;;;-0.50;99.90;;;;;;5074224;28;20058;-78
2023/02/06 06:42:17;;;;;;;76.72;9.50;;;-0.50;99.90;;;;;;5068852;28;20032;-78
2023/02/06 06:44:43;;;;;;;112.38;13.65;;;-0.40;99.90;;;;;;5088261;28;20372;-78
2023/02/06 06:47:09;;;;;;;98.25;12.13;;;-0.40;99.90;;;;;;5078591;28;20437;-78
2023/02/06 06:49:35;;;;;;;79.93;10.70;;;-0.30;99.90;;;;;;5071314;28;20089;-78
2023/02/06 06:52:00;;;;;;;46.78;8.63;;;-0.20;99.90;;;;;;5058131;28;20043;-77
2023/02/06 06:54:26;;;;;;;77.90;10.73;;;-0.20;99.90;;;;;;5050209;28;20531;-78
2023/02/06 06:56:52;;;;;;;71.55;10.73;;;-0.20;99.90;;;;;;5048609;28;20553;-78
2023/02/06 06:59:17;;;;;;;95.55;11.90;;;-0.20;99.90;;;;;;5059317;28;20512;-77
2023/02/06 07:01:44;;;;;;;93.72;11.90;;;-0.10;99.90;;;;;;5072890;28;20032;-78
2023/02/06 07:04:09;;;;;;;84.03;11.00;;;-0.10;99.90;;;;;;5060705;28;20063;-79
2023/02/06 07:06:35;;;;;;;104.80;14.15;;;0.00;99.90;;;;;;5044371;28;20457;-79
2023/02/06 07:09:00;;;;;;;132.35;14.32;;;0.00;99.90;;;;;;5070071;28;20036;-79
2023/02/06 07:11:26;;;;;;;142.13;14.07;;;-0.10;99.90;;;;;;5065809;28;20070;-78
2023/02/06 07:13:52;;;;;;;145.77;14.93;;;-0.10;99.90;;;;;;5056561;28;20039;-79
2023/02/06 07:16:17;;;;;;;117.15;13.23;;;0.00;99.90;;;;;;5060416;28;20032;-79
2023/02/06 07:18:43;;;;;;;114.57;15.45;;;-0.10;99.90;;;;;;5055614;28;20467;-79
2023/02/06 07:21:09;;;;;;;386.65;29.10;;;-0.10;99.90;;;;;;5039939;28;20492;-79
2023/02/06 07:23:37;;;;;;;105.32;14.80;;;0.00;99.90;;;;;;5065847;28;20051;-79
2023/02/06 07:26:03;;;;;;;71.90;12.15;;;0.00;99.90;;;;;;5064855;28;20121;-79
2023/02/06 07:28:29;;;;;;;104.75;14.93;;;0.20;99.90;;;;;;5052455;28;20491;-79
2023/02/06 07:30:59;;;;;;;105.53;15.65;;;0.20;99.90;;;;;;5068345;28;20071;-79
2023/02/06 07:33:24;;;;;;;121.68;14.00;;;0.30;99.90;;;;;;5066482;28;20052;-79
2023/02/06 07:35:50;;;;;;;139.63;14.40;;;0.30;99.90;;;;;;5066919;28;20503;-79
2023/02/06 07:38:16;;;;;;;137.65;15.55;;;0.30;99.90;;;;;;5063357;28;20108;-79
2023/02/06 07:40:41;;;;;;;197.38;15.90;;;0.40;99.90;;;;;;5071655;28;20027;-79
2023/02/06 07:43:07;;;;;;;212.60;15.38;;;0.40;99.90;;;;;;5054697;28;20122;-78
2023/02/06 07:45:32;;;;;;;130.15;14.93;;;0.40;99.90;;;;;;5051250;28;20055;-78
2023/02/06 07:47:58;;;;;;;148.82;20.20;;;0.50;99.90;;;;;;5063611;28;20036;-78
2023/02/06 07:50:23;;;;;;;154.57;16.90;;;0.40;99.90;;;;;;5067844;28;20028;-79
2023/02/06 07:52:49;;;;;;;104.88;15.63;;;0.50;99.90;;;;;;5050812;28;20024;-79
2023/02/06 07:55:14;;;;;;;166.77;18.98;;;0.40;99.90;;;;;;5059963;28;20035;-79
2023/02/06 07:57:41;;;;;;;104.85;16.45;;;0.40;99.90;;;;;;5066500;28;20027;-78
2023/02/06 08:00:08;;;;;;;103.80;16.65;;;0.60;99.90;;;;;;5078749;28;20515;-79
2023/02/06 08:02:33;;;;;;;145.60;17.27;;;0.60;99.90;;;;;;5050534;28;20029;-78
2023/02/06 08:04:59;;;;;;;216.05;22.35;;;0.60;99.90;;;;;;5057616;28;20361;-79
2023/02/06 08:07:24;;;;;;;173.23;20.55;;;0.60;99.90;;;;;;5058795;28;20394;-79
2023/02/06 08:09:50;;;;;;;132.63;19.05;;;0.60;99.90;;;;;;5053168;28;20507;-78
2023/02/06 08:12:15;;;;;;;231.93;21.20;;;0.70;99.90;;;;;;5089100;28;20436;-79
2023/02/06 08:14:44;;;;;;;116.57;17.30;;;0.80;99.90;;;;;;5074400;28;20508;-78
2023/02/06 08:17:11;;;;;;;140.30;18.48;;;0.80;99.90;;;;;;5075352;28;20096;-78
2023/02/06 08:19:37;;;;;;;111.38;18.33;;;0.90;99.90;;;;;;5044415;28;20503;-79
2023/02/06 08:22:02;;;;;;;203.60;21.85;;;0.80;99.90;;;;;;5044941;28;20047;-78
2023/02/06 08:24:28;;;;;;;120.93;18.73;;;0.90;99.90;;;;;;5074554;28;20035;-78
2023/02/06 08:26:54;;;;;;;159.20;20.08;;;0.90;99.90;;;;;;5051619;28;20437;-79
2023/02/06 08:29:19;;;;;;;104.70;15.70;;;1.00;99.90;;;;;;5060905;28;20040;-79
2023/02/06 08:31:45;;;;;;;116.88;15.02;;;1.10;99.90;;;;;;5081020;28;20078;-79
2023/02/06 08:34:12;;;;;;;36.83;11.15;;;1.30;99.90;;;;;;5081706;28;20056;-79
2023/02/06 08:36:39;;;;;;;79.80;13.43;;;1.30;99.90;;;;;;5055075;28;20020;-79
2023/02/06 08:39:04;;;;;;;269.00;24.20;;;1.40;99.90;;;;;;5072982;28;20039;-79
2023/02/06 08:41:32;;;;;;;242.15;21.75;;;1.50;99.90;;;;;;5055163;28;20183;-79
2023/02/06 08:43:59;;;;;;;97.05;14.35;;;1.50;99.90;;;;;;5071869;28;20790;-78
2023/02/06 08:46:27;;;;;;;66.82;12.52;;;1.50;99.90;;;;;;5066955;28;20498;-79
2023/02/06 08:49:03;;;;;;;163.38;18.35;;;1.60;99.90;;;;;;5061802;28;20032;-78
2023/02/06 08:51:29;;;;;;;217.32;22.73;;;1.60;99.90;;;;;;5041180;28;20047;-79
2023/02/06 08:53:59;;;;;;;27.73;10.15;;;1.70;99.90;;;;;;5035459;28;20021;-79
2023/02/06 08:56:25;;;;;;;244.10;24.38;;;1.80;99.90;;;;;;5057643;28;20070;-78
2023/02/06 08:58:50;;;;;;;256.30;25.13;;;1.90;99.90;;;;;;5038225;28;20025;-79
2023/02/06 09:01:16;;;;;;;275.88;25.85;;;1.90;99.90;;;;;;5055421;28;20028;-79
2023/02/06 09:03:42;;;;;;;358.85;33.47;;;1.90;99.90;;;;;;5043607;28;20039;-78
2023/02/06 09:06:08;;;;;;;286.70;29.83;;;2.00;99.90;;;;;;5062595;28;20037;-79
2023/02/06 09:08:34;;;;;;;177.60;22.48;;;2.00;99.90;;;;;;5056385;28;20143;-79
2023/02/06 09:11:10;;;;;;;226.73;28.17;;;2.10;99.90;;;;;;5035563;28;20028;-78
2023/02/06 09:13:36;;;;;;;247.50;29.80;;;2.30;99.90;;;;;;5052988;28;20398;-79
2023/02/06 09:16:02;;;;;;;139.43;18.17;;;2.40;99.90;;;;;;5037715;28;20032;-79
2023/02/06 09:18:27;;;;;;;203.43;25.25;;;2.40;99.90;;;;;;5044081;28;20083;-78
2023/02/06 09:21:11;;;;;;;115.97;19.60;;;2.50;99.90;;;;;;5045363;28;20043;-78
2023/02/06 09:23:37;;;;;;;207.30;28.42;;;2.50;99.90;;;;;;5044283;28;20060;-79
2023/02/06 09:26:03;;;;;;;279.33;33.58;;;2.60;99.90;;;;;;5058574;28;20059;-79
2023/02/06 09:28:29;;;;;;;130.88;23.27;;;2.60;99.90;;;;;;5036821;27;20048;-79
2023/02/06 09:30:54;;;;;;;330.25;37.38;;;2.70;99.90;;;;;;5046865;28;20039;-79
2023/02/06 09:33:20;;;;;;;533.83;53.33;;;2.80;99.90;;;;;;5040284;28;20396;-79
2023/02/06 09:35:46;;;;;;;125.50;25.85;;;2.80;99.90;;;;;;5058404;28;20032;-80
2023/02/06 09:38:11;;;;;;;206.90;28.70;;;3.00;99.90;;;;;;5050503;28;20039;-79
2023/02/06 09:40:38;;;;;;;111.15;22.50;;;3.00;99.90;;;;;;5044338;28;20118;-79
2023/02/06 09:43:04;;;;;;;185.63;28.77;;;3.10;99.90;;;;;;5071652;28;20032;-79
2023/02/06 09:45:30;;;;;;;93.70;22.20;;;3.20;99.90;;;;;;5052883;28;20029;-79
2023/02/06 09:48:03;;;;;;;149.15;25.08;;;3.20;99.90;;;;;;5050717;28;20020;-79
2023/02/06 09:50:54;;;;;;;100.18;22.20;;;3.30;99.90;;;;;;5053104;28;20407;-79
2023/02/06 09:53:33;;;;;;;55.00;16.67;;;3.40;99.90;;;;;;5068985;28;20483;-79
2023/02/06 09:56:21;;;;;;;96.38;21.13;;;3.50;99.90;;;;;;5068794;28;20171;-79
2023/02/06 09:59:13;;;;;;;89.10;21.38;;;3.50;99.90;;;;;;5070962;28;20051;-79
2023/02/06 10:01:41;;;;;;;90.25;20.27;;;3.60;99.90;;;;;;5068202;28;20100;-80
2023/02/06 10:04:32;;;;;;;112.80;22.48;;;3.70;99.90;;;;;;5082246;28;20492;-79
2023/02/06 10:07:38;;;;;;;103.20;19.98;;;3.80;99.90;;;;;;5068060;28;20051;-79
2023/02/06 10:10:05;;;;;;;60.75;17.58;;;3.80;99.90;;;;;;5083066;28;20194;-79
2023/02/06 10:12:46;;;;;;;81.97;22.20;;;3.90;99.90;;;;;;5054007;28;20423;-79
2023/02/06 10:15:28;;;;;;;94.85;24.42;;;4.00;99.90;;;;;;5069979;28;20540;-79
2023/02/06 10:17:55;;;;;;;116.50;27.27;;;4.10;99.90;;;;;;5072490;28;20043;-79
2023/02/06 10:20:48;;;;;;;107.95;24.55;;;4.20;99.90;;;;;;5084113;28;20024;-80
2023/02/06 10:23:19;;;;;;;81.53;18.63;;;4.30;99.90;;;;;;5070798;28;20475;-79
2023/02/06 10:25:48;;;;;;;76.03;20.77;;;4.30;99.90;;;;;;5086631;28;20028;-79
2023/02/06 10:28:20;;;;;;;83.72;21.05;;;4.40;99.90;;;;;;5051185;28;20032;-79
2023/02/06 10:31:17;;;;;;;104.13;23.70;;;4.60;99.90;;;;;;5053809;28;20039;-79
2023/02/06 10:34:10;;;;;;;89.15;24.08;;;4.70;99.90;;;;;;5082990;28;20115;-79
2023/02/06 10:37:09;;;;;;;99.40;24.45;;;4.80;99.90;;;;;;5088794;28;20032;-79
2023/02/06 10:39:43;;;;;;;89.25;24.17;;;4.90;99.90;;;;;;5085535;28;20044;-79
2023/02/06 10:42:42;;;;;;;95.57;24.52;;;5.00;99.90;;;;;;5073228;28;20035;-80
2023/02/06 10:45:37;;;;;;;79.65;22.17;;;5.10;99.90;;;;;;5084659;27;20040;-79
2023/02/06 10:48:19;;;;;;;83.50;23.27;;;5.20;99.90;;;;;;5089677;28;20032;-79
2023/02/06 10:50:47;;;;;;;111.47;27.17;;;5.30;99.90;;;;;;5070628;28;20028;-79
2023/02/06 10:53:22;;;;;;;85.95;24.33;;;5.40;99.90;;;;;;5069251;28;20032;-79
2023/02/06 10:55:57;;;;;;;75.88;20.25;;;5.50;99.90;;;;;;5046658;28;20024;-80
2023/02/06 10:58:26;;;;;;;80.22;20.42;;;5.50;99.90;;;;;;5068010;28;20492;-79
2023/02/06 11:00:51;;;;;;;91.05;26.05;;;5.50;99.90;;;;;;5065963;28;20500;-79
2023/02/06 11:03:19;;;;;;;89.60;24.95;;;5.80;99.90;;;;;;5074423;28;20113;-79
2023/02/06 11:05:45;;;;;;;101.53;25.42;;;5.80;99.90;;;;;;5069643;28;20039;-79
2023/02/06 11:08:17;;;;;;;79.47;21.42;;;5.80;99.90;;;;;;5052298;28;20031;-79
2023/02/06 11:10:45;;;;;;;126.95;31.90;;;5.80;99.90;;;;;;5059941;28;20567;-79
2023/02/06 11:13:26;;;;;;;124.97;32.85;;;6.00;99.90;;;;;;5078429;28;20108;-79
2023/02/06 11:16:01;;;;;;;109.93;32.53;;;6.30;99.90;;;;;;5071724;28;20020;-79
2023/02/06 11:18:30;;;;;;;97.20;27.15;;;6.30;99.90;;;;;;5065819;28;20028;-79
2023/02/06 11:20:55;;;;;;;105.47;31.00;;;6.30;99.90;;;;;;5066750;28;20522;-79
2023/02/06 11:23:26;;;;;;;108.68;33.38;;;6.30;99.90;;;;;;5068509;28;20028;-79
2023/02/06 11:25:56;;;;;;;90.53;28.02;;;6.50;99.90;;;;;;5069474;28;20028;-79
2023/02/06 11:28:23;;;;;;;95.28;32.90;;;6.40;99.90;;;;;;5076946;28;20036;-79
2023/02/06 11:30:56;;;;;;;77.55;28.92;;;6.40;99.90;;;;;;5069663;28;20027;-79
2023/02/06 11:33:27;;;;;;;87.75;26.42;;;6.50;99.90;;;;;;5071381;28;20609;-79
2023/02/06 11:35:54;;;;;;;78.95;25.35;;;6.60;99.90;;;;;;5064743;28;20340;-79
2023/02/06 11:38:21;;;;;;;68.60;23.42;;;6.70;99.90;;;;;;5056912;28;20538;-79
2023/02/06 11:41:15;;;;;;;74.43;27.00;;;6.80;99.90;;;;;;5057815;28;20550;-79
2023/02/06 11:43:41;;;;;;;62.80;22.73;;;6.90;99.90;;;;;;5062072;28;20028;-79
2023/02/06 11:46:25;;;;;;;69.40;23.20;;;6.90;99.90;;;;;;5071937;28;20032;-79
2023/02/06 11:48:54;;;;;;;48.80;18.30;;;7.00;99.90;;;;;;5065740;28;20035;-79
2023/02/06 11:51:19;;;;;;;71.53;23.63;;;7.10;99.90;;;;;;5081440;28;20043;-80
2023/02/06 11:53:59;;;;;;;62.97;22.60;;;7.20;99.90;;;;;;5085438;28;20590;-80
2023/02/06 11:56:25;;;;;;;69.97;22.42;;;7.30;99.90;;;;;;5079251;28;20058;-79
2023/02/06 11:59:01;;;;;;;70.25;23.25;;;7.40;99.90;;;;;;5074850;28;20488;-80
2023/02/06 12:01:26;;;;;;;51.63;21.20;;;7.40;99.90;;;;;;5088553;28;20036;-79
2023/02/06 12:03:56;;;;;;;36.88;17.35;;;7.60;99.90;;;;;;5047052;28;20465;-80
2023/02/06 12:06:31;;;;;;;28.85;12.18;;;7.70;99.90;;;;;;5058565;28;20453;-79
2023/02/06 12:09:04;;;;;;;27.05;10.05;;;7.70;99.90;;;;;;5077439;28;20020;-80
2023/02/06 12:11:33;;;;;;;29.90;9.80;;;7.70;99.90;;;;;;5070532;28;20378;-80
2023/02/06 12:14:28;;;;;;;22.25;8.27;;;7.70;99.90;;;;;;5081783;28;20039;-80
2023/02/06 12:16:53;;;;;;;19.58;7.63;;;7.70;99.90;;;;;;5067895;28;20095;-80
2023/02/06 12:19:25;;;;;;;28.98;7.07;;;7.70;99.90;;;;;;5042407;28;20085;-80
2023/02/06 12:21:53;;;;;;;20.20;7.53;;;7.60;99.90;;;;;;5016754;28;20392;-79
2023/02/06 12:24:43;;;;;;;26.35;9.23;;;7.60;99.90;;;;;;5058827;28;20543;-80
2023/02/06 12:27:35;;;;;;;25.85;10.45;;;7.50;99.90;;;;;;5043954;28;20027;-80
2023/02/06 12:30:22;;;;;;;27.67;11.52;;;7.50;99.90;;;;;;5056084;28;20060;-79
2023/02/06 12:32:48;;;;;;;;;;;7.50;99.90;;;;;;5078759;28;20489;-79
2023/02/06 12:35:35;;;;;;;30.50;12.23;;;7.40;99.90;;;;;;5079525;28;20032;-79
2023/02/06 12:38:06;;;;;;;30.48;12.77;;;7.30;99.90;;;;;;5042973;28;20116;-79
2023/02/06 12:41:02;;;;;;;30.13;14.25;;;7.30;99.90;;;;;;5042309;28;20082;-79
2023/02/06 12:43:28;;;;;;;38.15;13.82;;;7.30;99.90;;;;;;5075436;27;20032;-80
2023/02/06 12:46:00;;;;;;;39.50;13.52;;;7.20;99.90;;;;;;5081977;28;20535;-80
2023/02/06 12:48:35;;;;;;;40.10;17.20;;;7.20;99.90;;;;;;5019427;28;20024;-81
2023/02/06 12:51:18;;;;;;;53.00;17.88;;;7.20;99.90;;;;;;5076691;28;20029;-80